sensor_id;sensor_type;location;lat;lon;timestamp;P1;durP1;ratioP1;P2;durP2;ratioP2
70332;SDS011;57747;43.548;-5.704;2023-02-12T00:00:32;24.50;;;8.80;;
70332;SDS011;57747;43.548;-5.704;2023-02-12T00:02:58;19.60;;;9.27;;
70332;SDS011;57747;43.548;-5.704;2023-02-12T00:05:25;23.42;;;8.43;;
70332;SDS011;57747;43.548;-5.704;2023-02-12T00:07:52;19.73;;;9.52;;
70332;SDS011;57747;43.548;-5.704;2023-02-12T00:10:20;17.00;;;8.13;;
70332;SDS011;57747;43.548;-5.704;2023-02-12T00:12:45;14.07;;;8.50;;
70332;SDS011;57747;43.548;-5.704;2023-02-12T00:15:11;14.50;;;7.78;;
70332;SDS011;57747;43.548;-5.704;2023-02-12T00:17:36;19.05;;;7.45;;
70332;SDS011;57747;43.548;-5.704;2023-02-12T00:20:02;16.88;;;8.15;;
70332;SDS011;57747;43.548;-5.704;2023-02-12T00:22:27;22.02;;;8.50;;
70332;SDS011;57747;43.548;-5.704;2023-02-12T00:24:53;20.02;;;7.85;;
70332;SDS011;57747;43.548;-5.704;2023-02-12T00:27:22;27.08;;;8.57;;
70332;SDS011;57747;43.548;-5.704;2023-02-12T00:29:55;10.10;;;6.75;;
70332;SDS011;57747;43.548;-5.704;2023-02-12T00:32:20;16.05;;;8.25;;
70332;SDS011;57747;43.548;-5.704;2023-02-12T00:34:46;19.27;;;7.82;;
70332;SDS011;57747;43.548;-5.704;2023-02-12T00:37:11;23.48;;;7.97;;
70332;SDS011;57747;43.548;-5.704;2023-02-12T00:39:37;17.30;;;7.90;;
70332;SDS011;57747;43.548;-5.704;2023-02-12T00:42:02;16.58;;;7.80;;
70332;SDS011;57747;43.548;-5.704;2023-02-12T00:44:37;11.43;;;6.63;;
70332;SDS011;57747;43.548;-5.704;2023-02-12T00:47:05;16.45;;;8.27;;
70332;SDS011;57747;43.548;-5.704;2023-02-12T00:49:58;14.80;;;7.03;;
70332;SDS011;57747;43.548;-5.704;2023-02-12T00:55:29;18.33;;;6.90;;
70332;SDS011;57747;43.548;-5.704;2023-02-12T00:57:57;18.02;;;7.32;;
70332;SDS011;57747;43.548;-5.704;2023-02-12T01:00:22;10.40;;;6.10;;
70332;SDS011;57747;43.548;-5.704;2023-02-12T01:02:50;15.98;;;6.32;;
70332;SDS011;57747;43.548;-5.704;2023-02-12T01:05:16;12.52;;;6.72;;
70332;SDS011;57747;43.548;-5.704;2023-02-12T01:07:41;13.82;;;6.15;;
70332;SDS011;57747;43.548;-5.704;2023-02-12T01:10:07;14.60;;;6.38;;
70332;SDS011;57747;43.548;-5.704;2023-02-12T01:12:32;12.55;;;5.97;;
70332;SDS011;57747;43.548;-5.704;2023-02-12T01:14:58;15.60;;;6.65;;
70332;SDS011;57747;43.548;-5.704;2023-02-12T01:17:23;12.23;;;7.10;;
70332;SDS011;57747;43.548;-5.704;2023-02-12T01:19:49;13.40;;;7.35;;
70332;SDS011;57747;43.548;-5.704;2023-02-12T01:22:14;17.98;;;7.05;;
70332;SDS011;57747;43.548;-5.704;2023-02-12T01:24:40;12.27;;;6.40;;
70332;SDS011;57747;43.548;-5.704;2023-02-12T01:27:05;16.75;;;7.05;;
70332;SDS011;57747;43.548;-5.704;2023-02-12T01:29:31;12.50;;;6.65;;
70332;SDS011;57747;43.548;-5.704;2023-02-12T01:31:56;13.73;;;6.55;;
70332;SDS011;57747;43.548;-5.704;2023-02-12T01:34:21;14.18;;;6.88;;
70332;SDS011;57747;43.548;-5.704;2023-02-12T01:36:49;13.77;;;6.65;;
70332;SDS011;57747;43.548;-5.704;2023-02-12T01:39:14;14.20;;;7.72;;
70332;SDS011;57747;43.548;-5.704;2023-02-12T01:41:42;20.52;;;7.65;;
70332;SDS011;57747;43.548;-5.704;2023-02-12T01:46:45;10.80;;;6.65;;
70332;SDS011;57747;43.548;-5.704;2023-02-12T01:49:12;16.00;;;7.22;;
70332;SDS011;57747;43.548;-5.704;2023-02-12T01:51:39;19.60;;;7.57;;
70332;SDS011;57747;43.548;-5.704;2023-02-12T01:54:05;10.77;;;5.90;;
70332;SDS011;57747;43.548;-5.704;2023-02-12T01:56:31;12.80;;;6.30;;
70332;SDS011;57747;43.548;-5.704;2023-02-12T01:58:57;14.50;;;7.18;;
70332;SDS011;57747;43.548;-5.704;2023-02-12T02:01:25;11.40;;;6.55;;
70332;SDS011;57747;43.548;-5.704;2023-02-12T02:03:52;12.30;;;6.50;;
70332;SDS011;57747;43.548;-5.704;2023-02-12T02:06:19;12.02;;;6.43;;
70332;SDS011;57747;43.548;-5.704;2023-02-12T02:08:46;17.65;;;6.70;;
70332;SDS011;57747;43.548;-5.704;2023-02-12T02:11:15;10.52;;;6.35;;
70332;SDS011;57747;43.548;-5.704;2023-02-12T02:13:59;14.73;;;6.60;;
70332;SDS011;57747;43.548;-5.704;2023-02-12T02:16:45;11.35;;;5.78;;
70332;SDS011;57747;43.548;-5.704;2023-02-12T02:21:50;17.55;;;6.85;;
70332;SDS011;57747;43.548;-5.704;2023-02-12T02:32:23;12.40;;;6.57;;
70332;SDS011;57747;43.548;-5.704;2023-02-12T02:37:18;22.83;;;7.32;;
70332;SDS011;57747;43.548;-5.704;2023-02-12T02:44:56;9.32;;;5.97;;
70332;SDS011;57747;43.548;-5.704;2023-02-12T02:47:25;23.58;;;5.95;;
70332;SDS011;57747;43.548;-5.704;2023-02-12T02:49:55;13.73;;;6.05;;
70332;SDS011;57747;43.548;-5.704;2023-02-12T02:52:23;20.77;;;6.63;;
70332;SDS011;57747;43.548;-5.704;2023-02-12T02:54:54;11.98;;;5.07;;
70332;SDS011;57747;43.548;-5.704;2023-02-12T02:57:28;9.55;;;5.22;;
70332;SDS011;57747;43.548;-5.704;2023-02-12T03:02:51;10.05;;;4.80;;
70332;SDS011;57747;43.548;-5.704;2023-02-12T03:07:49;9.32;;;5.15;;
70332;SDS011;57747;43.548;-5.704;2023-02-12T03:10:19;12.75;;;4.75;;
70332;SDS011;57747;43.548;-5.704;2023-02-12T03:12:54;12.68;;;4.93;;
70332;SDS011;57747;43.548;-5.704;2023-02-12T03:15:28;8.05;;;4.65;;
70332;SDS011;57747;43.548;-5.704;2023-02-12T03:17:57;9.40;;;5.53;;
70332;SDS011;57747;43.548;-5.704;2023-02-12T03:20:30;9.65;;;4.32;;
70332;SDS011;57747;43.548;-5.704;2023-02-12T03:23:09;11.20;;;5.28;;
70332;SDS011;57747;43.548;-5.704;2023-02-12T03:28:17;13.38;;;5.32;;
70332;SDS011;57747;43.548;-5.704;2023-02-12T03:30:52;8.18;;;4.90;;
70332;SDS011;57747;43.548;-5.704;2023-02-12T03:35:58;11.27;;;5.07;;
70332;SDS011;57747;43.548;-5.704;2023-02-12T03:38:30;7.88;;;4.63;;
70332;SDS011;57747;43.548;-5.704;2023-02-12T03:43:33;6.47;;;4.07;;
70332;SDS011;57747;43.548;-5.704;2023-02-12T03:48:40;12.48;;;5.47;;
70332;SDS011;57747;43.548;-5.704;2023-02-12T03:53:47;6.47;;;4.00;;
70332;SDS011;57747;43.548;-5.704;2023-02-12T03:56:14;12.25;;;5.30;;
70332;SDS011;57747;43.548;-5.704;2023-02-12T03:58:45;12.15;;;5.30;;
70332;SDS011;57747;43.548;-5.704;2023-02-12T04:01:13;9.75;;;4.15;;
70332;SDS011;57747;43.548;-5.704;2023-02-12T04:03:39;8.57;;;4.45;;
70332;SDS011;57747;43.548;-5.704;2023-02-12T04:06:14;11.75;;;5.07;;
70332;SDS011;57747;43.548;-5.704;2023-02-12T04:08:41;16.30;;;5.40;;
70332;SDS011;57747;43.548;-5.704;2023-02-12T04:11:15;8.52;;;4.40;;
70332;SDS011;57747;43.548;-5.704;2023-02-12T04:16:30;22.77;;;5.05;;
70332;SDS011;57747;43.548;-5.704;2023-02-12T04:18:57;9.07;;;4.40;;
70332;SDS011;57747;43.548;-5.704;2023-02-12T04:21:31;12.95;;;5.28;;
70332;SDS011;57747;43.548;-5.704;2023-02-12T04:26:56;25.48;;;5.60;;
70332;SDS011;57747;43.548;-5.704;2023-02-12T04:29:35;11.85;;;5.35;;
70332;SDS011;57747;43.548;-5.704;2023-02-12T04:32:14;28.17;;;5.97;;
70332;SDS011;57747;43.548;-5.704;2023-02-12T04:37:17;64.40;;;8.68;;
70332;SDS011;57747;43.548;-5.704;2023-02-12T04:39:43;31.73;;;7.53;;
70332;SDS011;57747;43.548;-5.704;2023-02-12T04:42:10;25.52;;;5.95;;
70332;SDS011;57747;43.548;-5.704;2023-02-12T04:44:39;34.15;;;6.15;;
70332;SDS011;57747;43.548;-5.704;2023-02-12T04:47:05;26.10;;;6.47;;
70332;SDS011;57747;43.548;-5.704;2023-02-12T04:49:31;24.85;;;7.72;;
70332;SDS011;57747;43.548;-5.704;2023-02-12T04:51:56;16.73;;;6.85;;
70332;SDS011;57747;43.548;-5.704;2023-02-12T04:54:22;35.92;;;8.18;;
70332;SDS011;57747;43.548;-5.704;2023-02-12T04:56:50;19.25;;;10.23;;
70332;SDS011;57747;43.548;-5.704;2023-02-12T04:59:16;20.30;;;10.38;;
70332;SDS011;57747;43.548;-5.704;2023-02-12T05:01:42;21.00;;;9.18;;
70332;SDS011;57747;43.548;-5.704;2023-02-12T05:04:09;16.27;;;8.23;;
70332;SDS011;57747;43.548;-5.704;2023-02-12T05:06:37;27.10;;;8.00;;
70332;SDS011;57747;43.548;-5.704;2023-02-12T05:09:03;31.85;;;7.65;;
70332;SDS011;57747;43.548;-5.704;2023-02-12T05:11:29;19.98;;;6.05;;
70332;SDS011;57747;43.548;-5.704;2023-02-12T05:13:54;23.85;;;5.65;;
70332;SDS011;57747;43.548;-5.704;2023-02-12T05:16:20;23.63;;;5.28;;
70332;SDS011;57747;43.548;-5.704;2023-02-12T05:18:46;11.35;;;4.80;;
70332;SDS011;57747;43.548;-5.704;2023-02-12T05:21:11;16.75;;;4.50;;
70332;SDS011;57747;43.548;-5.704;2023-02-12T05:23:38;10.52;;;4.05;;
70332;SDS011;57747;43.548;-5.704;2023-02-12T05:26:06;29.88;;;6.15;;
70332;SDS011;57747;43.548;-5.704;2023-02-12T05:28:32;30.25;;;7.97;;
70332;SDS011;57747;43.548;-5.704;2023-02-12T05:30:59;31.60;;;7.75;;
70332;SDS011;57747;43.548;-5.704;2023-02-12T05:33:24;26.38;;;8.50;;
70332;SDS011;57747;43.548;-5.704;2023-02-12T05:35:49;16.38;;;7.88;;
70332;SDS011;57747;43.548;-5.704;2023-02-12T05:38:15;13.38;;;5.68;;
70332;SDS011;57747;43.548;-5.704;2023-02-12T05:40:40;12.32;;;5.03;;
70332;SDS011;57747;43.548;-5.704;2023-02-12T05:43:07;16.27;;;5.10;;
70332;SDS011;57747;43.548;-5.704;2023-02-12T05:45:34;8.77;;;5.03;;
70332;SDS011;57747;43.548;-5.704;2023-02-12T05:48:05;11.40;;;4.50;;
70332;SDS011;57747;43.548;-5.704;2023-02-12T05:50:31;8.60;;;4.10;;
70332;SDS011;57747;43.548;-5.704;2023-02-12T05:52:58;11.93;;;5.20;;
70332;SDS011;57747;43.548;-5.704;2023-02-12T05:55:23;10.45;;;4.60;;
70332;SDS011;57747;43.548;-5.704;2023-02-12T05:57:49;8.32;;;4.47;;
70332;SDS011;57747;43.548;-5.704;2023-02-12T06:00:15;15.73;;;5.15;;
70332;SDS011;57747;43.548;-5.704;2023-02-12T06:02:40;10.25;;;5.15;;
70332;SDS011;57747;43.548;-5.704;2023-02-12T06:05:06;6.20;;;4.28;;
70332;SDS011;57747;43.548;-5.704;2023-02-12T06:07:31;7.60;;;4.63;;
70332;SDS011;57747;43.548;-5.704;2023-02-12T06:09:56;9.05;;;4.43;;
70332;SDS011;57747;43.548;-5.704;2023-02-12T06:12:23;10.85;;;4.85;;
70332;SDS011;57747;43.548;-5.704;2023-02-12T06:14:51;8.48;;;4.15;;
70332;SDS011;57747;43.548;-5.704;2023-02-12T06:17:19;7.05;;;3.97;;
70332;SDS011;57747;43.548;-5.704;2023-02-12T06:19:45;7.30;;;3.65;;
70332;SDS011;57747;43.548;-5.704;2023-02-12T06:22:10;12.50;;;5.55;;
70332;SDS011;57747;43.548;-5.704;2023-02-12T06:24:36;19.73;;;5.97;;
70332;SDS011;57747;43.548;-5.704;2023-02-12T06:27:01;11.52;;;5.03;;
70332;SDS011;57747;43.548;-5.704;2023-02-12T06:29:27;9.40;;;4.72;;
70332;SDS011;57747;43.548;-5.704;2023-02-12T06:31:55;9.95;;;4.82;;
70332;SDS011;57747;43.548;-5.704;2023-02-12T06:34:21;11.65;;;6.13;;
70332;SDS011;57747;43.548;-5.704;2023-02-12T06:36:47;14.68;;;6.13;;
70332;SDS011;57747;43.548;-5.704;2023-02-12T06:39:13;24.30;;;6.13;;
70332;SDS011;57747;43.548;-5.704;2023-02-12T06:41:39;27.80;;;6.80;;
70332;SDS011;57747;43.548;-5.704;2023-02-12T06:44:06;25.33;;;8.00;;
70332;SDS011;57747;43.548;-5.704;2023-02-12T06:46:32;21.42;;;6.85;;
70332;SDS011;57747;43.548;-5.704;2023-02-12T06:48:58;26.42;;;7.15;;
70332;SDS011;57747;43.548;-5.704;2023-02-12T06:51:26;18.30;;;6.32;;
70332;SDS011;57747;43.548;-5.704;2023-02-12T06:53:53;12.98;;;6.03;;
70332;SDS011;57747;43.548;-5.704;2023-02-12T06:56:22;35.60;;;6.68;;
70332;SDS011;57747;43.548;-5.704;2023-02-12T06:58:51;10.27;;;6.13;;
70332;SDS011;57747;43.548;-5.704;2023-02-12T07:01:21;14.75;;;5.95;;
70332;SDS011;57747;43.548;-5.704;2023-02-12T07:03:47;21.13;;;7.07;;
70332;SDS011;57747;43.548;-5.704;2023-02-12T07:06:15;14.65;;;6.50;;
70332;SDS011;57747;43.548;-5.704;2023-02-12T07:08:41;14.85;;;6.97;;
70332;SDS011;57747;43.548;-5.704;2023-02-12T07:11:06;16.90;;;7.35;;
70332;SDS011;57747;43.548;-5.704;2023-02-12T07:13:34;13.13;;;5.90;;
70332;SDS011;57747;43.548;-5.704;2023-02-12T07:16:03;8.40;;;4.47;;
70332;SDS011;57747;43.548;-5.704;2023-02-12T07:18:29;5.63;;;3.60;;
70332;SDS011;57747;43.548;-5.704;2023-02-12T07:20:55;9.77;;;4.43;;
70332;SDS011;57747;43.548;-5.704;2023-02-12T07:23:20;5.68;;;3.40;;
70332;SDS011;57747;43.548;-5.704;2023-02-12T07:25:53;9.38;;;2.70;;
70332;SDS011;57747;43.548;-5.704;2023-02-12T07:28:18;5.88;;;2.53;;
70332;SDS011;57747;43.548;-5.704;2023-02-12T07:30:44;24.88;;;4.55;;
70332;SDS011;57747;43.548;-5.704;2023-02-12T07:33:09;7.65;;;3.92;;
70332;SDS011;57747;43.548;-5.704;2023-02-12T07:35:34;17.10;;;4.65;;
70332;SDS011;57747;43.548;-5.704;2023-02-12T07:38:00;14.75;;;6.57;;
70332;SDS011;57747;43.548;-5.704;2023-02-12T07:40:25;27.35;;;6.45;;
70332;SDS011;57747;43.548;-5.704;2023-02-12T07:42:55;25.15;;;5.32;;
70332;SDS011;57747;43.548;-5.704;2023-02-12T07:45:20;13.23;;;3.35;;
70332;SDS011;57747;43.548;-5.704;2023-02-12T07:47:46;6.93;;;3.22;;
70332;SDS011;57747;43.548;-5.704;2023-02-12T07:50:14;6.50;;;3.28;;
70332;SDS011;57747;43.548;-5.704;2023-02-12T07:52:39;7.03;;;3.00;;
70332;SDS011;57747;43.548;-5.704;2023-02-12T07:55:05;17.27;;;2.92;;
70332;SDS011;57747;43.548;-5.704;2023-02-12T07:57:30;16.10;;;2.55;;
70332;SDS011;57747;43.548;-5.704;2023-02-12T07:59:55;11.20;;;3.03;;
70332;SDS011;57747;43.548;-5.704;2023-02-12T08:02:21;11.60;;;3.22;;
70332;SDS011;57747;43.548;-5.704;2023-02-12T08:04:49;5.78;;;2.88;;
70332;SDS011;57747;43.548;-5.704;2023-02-12T08:07:15;7.50;;;3.28;;
70332;SDS011;57747;43.548;-5.704;2023-02-12T08:09:40;12.98;;;2.95;;
70332;SDS011;57747;43.548;-5.704;2023-02-12T08:12:08;11.65;;;3.42;;
70332;SDS011;57747;43.548;-5.704;2023-02-12T08:14:34;18.38;;;3.95;;
70332;SDS011;57747;43.548;-5.704;2023-02-12T08:16:59;14.20;;;3.25;;
70332;SDS011;57747;43.548;-5.704;2023-02-12T08:19:27;16.58;;;3.83;;
70332;SDS011;57747;43.548;-5.704;2023-02-12T08:21:56;12.35;;;2.83;;
70332;SDS011;57747;43.548;-5.704;2023-02-12T08:24:22;11.48;;;3.03;;
70332;SDS011;57747;43.548;-5.704;2023-02-12T08:26:48;5.78;;;2.63;;
70332;SDS011;57747;43.548;-5.704;2023-02-12T08:29:14;5.00;;;2.58;;
70332;SDS011;57747;43.548;-5.704;2023-02-12T08:31:41;3.15;;;2.28;;
70332;SDS011;57747;43.548;-5.704;2023-02-12T08:34:11;11.00;;;2.72;;
70332;SDS011;57747;43.548;-5.704;2023-02-12T08:36:42;10.48;;;2.67;;
70332;SDS011;57747;43.548;-5.704;2023-02-12T08:39:08;10.05;;;2.35;;
70332;SDS011;57747;43.548;-5.704;2023-02-12T08:41:34;6.80;;;3.00;;
70332;SDS011;57747;43.548;-5.704;2023-02-12T08:44:01;3.72;;;2.22;;
70332;SDS011;57747;43.548;-5.704;2023-02-12T08:46:28;5.35;;;2.47;;
70332;SDS011;57747;43.548;-5.704;2023-02-12T08:48:55;7.22;;;2.55;;
70332;SDS011;57747;43.548;-5.704;2023-02-12T08:51:22;4.72;;;2.45;;
70332;SDS011;57747;43.548;-5.704;2023-02-12T08:53:51;16.58;;;3.42;;
70332;SDS011;57747;43.548;-5.704;2023-02-12T08:56:18;9.18;;;2.17;;
70332;SDS011;57747;43.548;-5.704;2023-02-12T08:58:47;7.18;;;2.97;;
70332;SDS011;57747;43.548;-5.704;2023-02-12T09:01:13;4.78;;;2.58;;
70332;SDS011;57747;43.548;-5.704;2023-02-12T09:03:40;13.77;;;2.78;;
70332;SDS011;57747;43.548;-5.704;2023-02-12T09:06:06;4.97;;;2.20;;
70332;SDS011;57747;43.548;-5.704;2023-02-12T09:08:35;9.32;;;2.35;;
70332;SDS011;57747;43.548;-5.704;2023-02-12T09:11:06;12.10;;;2.80;;
70332;SDS011;57747;43.548;-5.704;2023-02-12T09:13:32;4.70;;;2.33;;
70332;SDS011;57747;43.548;-5.704;2023-02-12T09:15:59;6.18;;;2.65;;
70332;SDS011;57747;43.548;-5.704;2023-02-12T09:18:25;10.75;;;2.22;;
70332;SDS011;57747;43.548;-5.704;2023-02-12T09:20:50;8.88;;;2.50;;
70332;SDS011;57747;43.548;-5.704;2023-02-12T09:23:16;7.95;;;3.10;;
70332;SDS011;57747;43.548;-5.704;2023-02-12T09:25:42;5.38;;;3.20;;
70332;SDS011;57747;43.548;-5.704;2023-02-12T09:28:11;11.25;;;3.05;;
70332;SDS011;57747;43.548;-5.704;2023-02-12T09:30:38;8.15;;;3.10;;
70332;SDS011;57747;43.548;-5.704;2023-02-12T09:33:04;15.43;;;4.00;;
70332;SDS011;57747;43.548;-5.704;2023-02-12T09:35:29;4.30;;;2.17;;
70332;SDS011;57747;43.548;-5.704;2023-02-12T09:37:55;16.77;;;3.30;;
70332;SDS011;57747;43.548;-5.704;2023-02-12T09:51:20;4.93;;;1.80;;
70332;SDS011;57747;43.548;-5.704;2023-02-12T09:53:47;3.17;;;1.92;;
70332;SDS011;57747;43.548;-5.704;2023-02-12T09:56:15;4.50;;;2.10;;
70332;SDS011;57747;43.548;-5.704;2023-02-12T09:58:50;5.25;;;2.10;;
70332;SDS011;57747;43.548;-5.704;2023-02-12T10:01:18;3.60;;;1.58;;
70332;SDS011;57747;43.548;-5.704;2023-02-12T10:03:44;2.70;;;1.73;;
70332;SDS011;57747;43.548;-5.704;2023-02-12T10:06:15;4.80;;;1.90;;
70332;SDS011;57747;43.548;-5.704;2023-02-12T10:08:52;3.95;;;2.08;;
70332;SDS011;57747;43.548;-5.704;2023-02-12T10:11:23;8.85;;;2.20;;
70332;SDS011;57747;43.548;-5.704;2023-02-12T10:14:05;14.98;;;3.22;;
70332;SDS011;57747;43.548;-5.704;2023-02-12T10:19:03;6.10;;;2.78;;
70332;SDS011;57747;43.548;-5.704;2023-02-12T10:21:37;7.80;;;2.85;;
70332;SDS011;57747;43.548;-5.704;2023-02-12T10:24:11;7.25;;;2.65;;
70332;SDS011;57747;43.548;-5.704;2023-02-12T10:26:57;11.52;;;3.17;;
70332;SDS011;57747;43.548;-5.704;2023-02-12T10:29:24;8.98;;;2.97;;
70332;SDS011;57747;43.548;-5.704;2023-02-12T10:31:56;5.07;;;2.30;;
70332;SDS011;57747;43.548;-5.704;2023-02-12T10:34:25;3.35;;;1.80;;
70332;SDS011;57747;43.548;-5.704;2023-02-12T10:36:51;7.15;;;2.70;;
70332;SDS011;57747;43.548;-5.704;2023-02-12T10:42:21;20.27;;;4.07;;
70332;SDS011;57747;43.548;-5.704;2023-02-12T10:44:50;7.88;;;2.47;;
70332;SDS011;57747;43.548;-5.704;2023-02-12T10:47:22;6.30;;;1.92;;
70332;SDS011;57747;43.548;-5.704;2023-02-12T10:49:53;10.70;;;2.80;;
70332;SDS011;57747;43.548;-5.704;2023-02-12T10:52:40;11.82;;;3.47;;
70332;SDS011;57747;43.548;-5.704;2023-02-12T10:57:57;25.70;;;4.88;;
70332;SDS011;57747;43.548;-5.704;2023-02-12T11:03:05;17.13;;;3.50;;
70332;SDS011;57747;43.548;-5.704;2023-02-12T11:05:32;24.25;;;3.30;;
70332;SDS011;57747;43.548;-5.704;2023-02-12T11:07:58;32.13;;;8.07;;
70332;SDS011;57747;43.548;-5.704;2023-02-12T11:10:27;43.28;;;18.02;;
70332;SDS011;57747;43.548;-5.704;2023-02-12T11:12:53;36.28;;;15.20;;
70332;SDS011;57747;43.548;-5.704;2023-02-12T11:15:19;45.97;;;10.52;;
70332;SDS011;57747;43.548;-5.704;2023-02-12T11:17:56;21.10;;;7.97;;
70332;SDS011;57747;43.548;-5.704;2023-02-12T11:20:23;24.05;;;7.90;;
70332;SDS011;57747;43.548;-5.704;2023-02-12T11:25:18;13.30;;;4.05;;
70332;SDS011;57747;43.548;-5.704;2023-02-12T11:27:43;15.82;;;4.47;;
70332;SDS011;57747;43.548;-5.704;2023-02-12T11:32:34;19.00;;;3.33;;
70332;SDS011;57747;43.548;-5.704;2023-02-12T11:37:28;17.92;;;2.83;;
70332;SDS011;57747;43.548;-5.704;2023-02-12T11:39:55;15.38;;;3.22;;
70332;SDS011;57747;43.548;-5.704;2023-02-12T11:42:24;4.13;;;1.30;;
70332;SDS011;57747;43.548;-5.704;2023-02-12T11:44:56;10.10;;;1.67;;
70332;SDS011;57747;43.548;-5.704;2023-02-12T11:47:24;2.88;;;0.95;;
70332;SDS011;57747;43.548;-5.704;2023-02-12T11:49:54;1.08;;;0.90;;
70332;SDS011;57747;43.548;-5.704;2023-02-12T11:52:23;1.17;;;0.98;;
70332;SDS011;57747;43.548;-5.704;2023-02-12T11:54:49;6.90;;;1.48;;
70332;SDS011;57747;43.548;-5.704;2023-02-12T12:00:24;4.95;;;2.00;;
70332;SDS011;57747;43.548;-5.704;2023-02-12T12:05:41;12.50;;;2.20;;
70332;SDS011;57747;43.548;-5.704;2023-02-12T12:11:09;5.63;;;2.22;;
70332;SDS011;57747;43.548;-5.704;2023-02-12T12:13:42;4.80;;;2.10;;
70332;SDS011;57747;43.548;-5.704;2023-02-12T12:16:18;15.90;;;2.15;;
70332;SDS011;57747;43.548;-5.704;2023-02-12T12:19:23;8.30;;;2.55;;
70332;SDS011;57747;43.548;-5.704;2023-02-12T12:24:37;11.25;;;1.65;;
70332;SDS011;57747;43.548;-5.704;2023-02-12T12:30:19;10.75;;;3.55;;
70332;SDS011;57747;43.548;-5.704;2023-02-12T12:32:46;17.20;;;3.50;;
70332;SDS011;57747;43.548;-5.704;2023-02-12T12:35:14;11.20;;;2.75;;
70332;SDS011;57747;43.548;-5.704;2023-02-12T12:37:53;3.85;;;2.40;;
70332;SDS011;57747;43.548;-5.704;2023-02-12T12:53:49;5.70;;;2.72;;
70332;SDS011;57747;43.548;-5.704;2023-02-12T12:56:32;11.30;;;2.83;;
70332;SDS011;57747;43.548;-5.704;2023-02-12T13:02:08;10.23;;;3.10;;
70332;SDS011;57747;43.548;-5.704;2023-02-12T13:04:50;9.85;;;4.13;;
70332;SDS011;57747;43.548;-5.704;2023-02-12T13:17:19;6.10;;;2.88;;
70332;SDS011;57747;43.548;-5.704;2023-02-12T13:22:31;16.30;;;4.18;;
70332;SDS011;57747;43.548;-5.704;2023-02-12T13:25:05;20.73;;;6.20;;
70332;SDS011;57747;43.548;-5.704;2023-02-12T13:27:38;12.85;;;4.63;;
70332;SDS011;57747;43.548;-5.704;2023-02-12T13:30:17;17.55;;;5.55;;
70332;SDS011;57747;43.548;-5.704;2023-02-12T13:32:46;9.45;;;3.40;;
70332;SDS011;57747;43.548;-5.704;2023-02-12T13:35:19;9.80;;;3.53;;
70332;SDS011;57747;43.548;-5.704;2023-02-12T13:37:50;9.60;;;3.05;;
70332;SDS011;57747;43.548;-5.704;2023-02-12T13:40:17;7.50;;;3.53;;
70332;SDS011;57747;43.548;-5.704;2023-02-12T13:45:24;11.95;;;3.13;;
70332;SDS011;57747;43.548;-5.704;2023-02-12T13:48:07;7.15;;;2.78;;
70332;SDS011;57747;43.548;-5.704;2023-02-12T13:53:18;7.60;;;2.65;;
70332;SDS011;57747;43.548;-5.704;2023-02-12T13:55:56;7.23;;;2.43;;
70332;SDS011;57747;43.548;-5.704;2023-02-12T14:01:02;7.43;;;2.90;;
70332;SDS011;57747;43.548;-5.704;2023-02-12T14:03:28;16.05;;;3.90;;
70332;SDS011;57747;43.548;-5.704;2023-02-12T14:06:10;18.80;;;4.53;;
70332;SDS011;57747;43.548;-5.704;2023-02-12T14:08:37;12.75;;;3.60;;
70332;SDS011;57747;43.548;-5.704;2023-02-12T14:11:07;9.80;;;2.97;;
70332;SDS011;57747;43.548;-5.704;2023-02-12T14:13:35;6.00;;;2.75;;
70332;SDS011;57747;43.548;-5.704;2023-02-12T14:16:17;7.80;;;1.95;;
70332;SDS011;57747;43.548;-5.704;2023-02-12T14:21:46;5.00;;;2.20;;
70332;SDS011;57747;43.548;-5.704;2023-02-12T14:26:56;9.02;;;3.33;;
70332;SDS011;57747;43.548;-5.704;2023-02-12T14:29:21;19.50;;;4.90;;
70332;SDS011;57747;43.548;-5.704;2023-02-12T14:31:48;11.32;;;4.95;;
70332;SDS011;57747;43.548;-5.704;2023-02-12T14:36:45;19.23;;;5.75;;
70332;SDS011;57747;43.548;-5.704;2023-02-12T14:41:48;8.90;;;3.90;;
70332;SDS011;57747;43.548;-5.704;2023-02-12T14:49:19;3.10;;;2.15;;
70332;SDS011;57747;43.548;-5.704;2023-02-12T14:52:06;6.95;;;3.17;;
70332;SDS011;57747;43.548;-5.704;2023-02-12T14:57:06;17.95;;;4.47;;
70332;SDS011;57747;43.548;-5.704;2023-02-12T14:59:35;6.00;;;2.63;;
70332;SDS011;57747;43.548;-5.704;2023-02-12T15:04:57;19.60;;;6.03;;
70332;SDS011;57747;43.548;-5.704;2023-02-12T15:07:36;14.95;;;4.30;;
70332;SDS011;57747;43.548;-5.704;2023-02-12T15:10:05;6.13;;;2.97;;
70332;SDS011;57747;43.548;-5.704;2023-02-12T15:18:26;3.65;;;2.10;;
70332;SDS011;57747;43.548;-5.704;2023-02-12T15:21:01;5.05;;;1.75;;
70332;SDS011;57747;43.548;-5.704;2023-02-12T15:25:58;3.10;;;1.90;;
70332;SDS011;57747;43.548;-5.704;2023-02-12T15:28:24;4.22;;;2.05;;
70332;SDS011;57747;43.548;-5.704;2023-02-12T15:30:51;6.53;;;2.50;;
70332;SDS011;57747;43.548;-5.704;2023-02-12T15:33:25;2.80;;;1.30;;
70332;SDS011;57747;43.548;-5.704;2023-02-12T15:35:51;2.85;;;1.73;;
70332;SDS011;57747;43.548;-5.704;2023-02-12T15:38:21;4.75;;;2.38;;
70332;SDS011;57747;43.548;-5.704;2023-02-12T15:40:57;5.72;;;1.63;;
70332;SDS011;57747;43.548;-5.704;2023-02-12T15:43:25;3.42;;;1.80;;
70332;SDS011;57747;43.548;-5.704;2023-02-12T15:45:51;5.15;;;2.10;;
70332;SDS011;57747;43.548;-5.704;2023-02-12T15:48:21;5.85;;;2.03;;
70332;SDS011;57747;43.548;-5.704;2023-02-12T15:51:08;3.30;;;2.00;;
70332;SDS011;57747;43.548;-5.704;2023-02-12T15:53:32;7.75;;;2.30;;
70332;SDS011;57747;43.548;-5.704;2023-02-12T15:55:58;3.35;;;2.13;;
70332;SDS011;57747;43.548;-5.704;2023-02-12T15:58:26;4.30;;;2.13;;
70332;SDS011;57747;43.548;-5.704;2023-02-12T16:00:52;7.38;;;2.10;;
70332;SDS011;57747;43.548;-5.704;2023-02-12T16:06:07;6.03;;;2.58;;
70332;SDS011;57747;43.548;-5.704;2023-02-12T16:08:43;3.88;;;2.10;;
70332;SDS011;57747;43.548;-5.704;2023-02-12T16:11:18;6.75;;;2.30;;
70332;SDS011;57747;43.548;-5.704;2023-02-12T16:14:04;2.35;;;1.33;;
70332;SDS011;57747;43.548;-5.704;2023-02-12T16:21:52;3.17;;;1.90;;
70332;SDS011;57747;43.548;-5.704;2023-02-12T16:24:24;3.63;;;1.45;;
70332;SDS011;57747;43.548;-5.704;2023-02-12T16:26:50;6.25;;;2.00;;
70332;SDS011;57747;43.548;-5.704;2023-02-12T16:29:15;6.63;;;1.48;;
70332;SDS011;57747;43.548;-5.704;2023-02-12T16:31:51;4.22;;;1.40;;
70332;SDS011;57747;43.548;-5.704;2023-02-12T16:34:33;4.45;;;1.52;;
70332;SDS011;57747;43.548;-5.704;2023-02-12T16:36:59;3.63;;;1.80;;
70332;SDS011;57747;43.548;-5.704;2023-02-12T16:42:13;6.47;;;2.47;;
70332;SDS011;57747;43.548;-5.704;2023-02-12T16:44:39;4.18;;;1.85;;
70332;SDS011;57747;43.548;-5.704;2023-02-12T16:47:05;4.72;;;1.77;;
70332;SDS011;57747;43.548;-5.704;2023-02-12T16:49:30;2.83;;;2.10;;
70332;SDS011;57747;43.548;-5.704;2023-02-12T16:52:18;5.30;;;2.55;;
70332;SDS011;57747;43.548;-5.704;2023-02-12T16:54:43;8.63;;;2.60;;
70332;SDS011;57747;43.548;-5.704;2023-02-12T16:57:09;5.85;;;2.63;;
70332;SDS011;57747;43.548;-5.704;2023-02-12T16:59:35;4.70;;;2.03;;
70332;SDS011;57747;43.548;-5.704;2023-02-12T17:02:08;18.92;;;4.15;;
70332;SDS011;57747;43.548;-5.704;2023-02-12T17:04:34;4.93;;;2.35;;
70332;SDS011;57747;43.548;-5.704;2023-02-12T17:07:00;3.72;;;2.03;;
70332;SDS011;57747;43.548;-5.704;2023-02-12T17:09:25;5.95;;;2.10;;
70332;SDS011;57747;43.548;-5.704;2023-02-12T17:11:54;12.88;;;3.05;;
70332;SDS011;57747;43.548;-5.704;2023-02-12T17:14:20;5.88;;;2.10;;
70332;SDS011;57747;43.548;-5.704;2023-02-12T17:16:47;8.07;;;3.00;;
70332;SDS011;57747;43.548;-5.704;2023-02-12T17:19:13;11.38;;;3.63;;
70332;SDS011;57747;43.548;-5.704;2023-02-12T17:21:39;5.70;;;2.63;;
70332;SDS011;57747;43.548;-5.704;2023-02-12T17:24:08;12.38;;;4.20;;
70332;SDS011;57747;43.548;-5.704;2023-02-12T17:26:37;5.65;;;3.20;;